| Date | Time | Temp. (oF) | Dew Point (oF) | Rel. Hum. (%) | Press. (in.) | Wind Dir. | Wind Speed (mph) | Hourly Rainfall (in.) |
|
|---|---|---|---|---|---|---|---|---|---|
| 1 | 01/19 | 00:00 | 8 | 0 | 67 | 30.57 | SSE | 3 | 0.00 |
| 2 | 01/18 | 23:00 | 9 | -1 | 62 | 30.60 | ENE | 3 | 0.00 |
| 3 | 01/18 | 22:00 | 10 | -1 | 59 | 30.63 | E | 1 | 0.00 |
| 4 | 01/18 | 21:00 | 11 | -2 | 54 | 30.65 | ENE | 0 | 0.00 |
| 5 | 01/18 | 20:00 | 11 | -3 | 51 | 30.67 | NE | 2 | 0.00 |
| 6 | 01/18 | 19:00 | 12 | -3 | 48 | 30.68 | NNW | 3 | 0.00 |
| 7 | 01/18 | 18:00 | 13 | -3 | 47 | 30.65 | NNW | 2 | 0.00 |
| 8 | 01/18 | 17:00 | 14 | -4 | 43 | 30.63 | NW | 6 | 0.00 |
| 9 | 01/18 | 16:00 | 15 | -4 | 42 | 30.61 | NW | 6 | 0.00 |
| 10 | 01/18 | 15:00 | 15 | -4 | 41 | 30.62 | NNW | 9 | 0.00 |
| 11 | 01/18 | 14:00 | 14 | -3 | 44 | 30.64 | NNW | 8 | 0.00 |
| 12 | 01/18 | 13:00 | 14 | -3 | 45 | 30.64 | WNW | 19 | 0.00 |
| 13 | 01/18 | 12:00 | 12 | -5 | 45 | 30.68 | NNW | 15 | 0.00 |
| 14 | 01/18 | 11:00 | 12 | -1 | 54 | 30.69 | NW | 22 | 0.00 |
| 15 | 01/18 | 10:00 | 12 | -2 | 51 | 30.68 | NW | 10 | 0.00 |
| 16 | 01/18 | 09:00 | 11 | -2 | 55 | 30.65 | WNW | 11 | 0.00 |
| 17 | 01/18 | 08:00 | 9 | -2 | 58 | 30.63 | W | 17 | 0.00 |
| 18 | 01/18 | 07:00 | 9 | -2 | 59 | 30.60 | W | 11 | 0.00 |
| 19 | 01/18 | 06:00 | 10 | -1 | 59 | 30.57 | WNW | 9 | 0.00 |
| 20 | 01/18 | 05:00 | 10 | 0 | 61 | 30.55 | W | 7 | 0.00 |
| 21 | 01/18 | 04:00 | 11 | 0 | 61 | 30.54 | W | 9 | 0.00 |
| 22 | 01/18 | 03:00 | 11 | 1 | 64 | 30.52 | WNW | 9 | 0.00 |
| 23 | miss | miss | miss | miss | miss | miss | miss | miss | |
| 24 | 01/18 | 02:01 | 12 | 2 | 65 | 30.51 | WNW | 9 | 0.00 |
| 25 | miss | miss | miss | miss | miss | miss | miss | miss | |
| 26 | 01/18 | 02:00 | 12 | 2 | 65 | 30.51 | W | 11 | 0.00 |
| 27 | miss | miss | miss | miss | miss | miss | miss | miss | |
| 28 | 01/18 | 02:00 | 12 | 2 | 65 | 30.51 | W | 11 | 0.00 |
| 29 | miss | miss | miss | miss | miss | miss | miss | miss | |
| 30 | 01/18 | 02:00 | 12 | 2 | 65 | 30.51 | W | 11 | 0.00 |
| 31 | miss | miss | miss | miss | miss | miss | miss | miss | |
| 32 | 01/18 | 02:00 | 12 | 2 | 65 | 30.51 | W | 11 | 0.00 |
| 33 | miss | miss | miss | miss | miss | miss | miss | miss | |
| 34 | 01/18 | 02:00 | 12 | 2 | 65 | 30.51 | W | 11 | 0.00 |
| 35 | miss | miss | miss | miss | miss | miss | miss | miss | |
| 36 | 01/18 | 02:00 | 12 | 2 | 65 | 30.51 | W | 11 | 0.00 |
| 37 | miss | miss | miss | miss | miss | miss | miss | miss | |
| 38 | 01/18 | 02:00 | 12 | 2 | 65 | 30.51 | W | 11 | 0.00 |
| 39 | miss | miss | miss | miss | miss | miss | miss | miss | |
| 40 | 01/18 | 02:00 | 12 | 2 | 65 | 30.51 | W | 11 | 0.00 |
| 41 | miss | miss | miss | miss | miss | miss | miss | miss | |
| 42 | 01/18 | 02:00 | 12 | 2 | 65 | 30.51 | W | 11 | 0.00 |
| 43 | miss | miss | miss | miss | miss | miss | miss | miss | |
| 44 | 01/18 | 02:00 | 12 | 2 | 65 | 30.51 | W | 11 | 0.00 |
| 45 | miss | miss | miss | miss | miss | miss | miss | miss | |
| 46 | 01/18 | 02:00 | 12 | 2 | 65 | 30.51 | W | 11 | 0.00 |
| 47 | 01/18 | 01:59 | 12 | 2 | 65 | 30.50 | W | 2 | 0.00 |
| 48 | 01/18 | 01:00 | 12 | 1 | 63 | 30.49 | WNW | 6 | 0.00 |
| 49 | 01/18 | 00:00 | 12 | 1 | 61 | 30.48 | WNW | 8 | 0.00 |
| 50 | 01/17 | 23:00 | 13 | 0 | 56 | 30.47 | WSW | 9 | 0.00 |
| 51 | 01/17 | 22:00 | 13 | 2 | 61 | 30.47 | WNW | 13 | 0.00 |
| 52 | 01/17 | 21:00 | 14 | 3 | 62 | 30.46 | WNW | 15 | 0.00 |
| 53 | 01/17 | 20:00 | 14 | 2 | 60 | 30.45 | WSW | 16 | 0.00 |
| 54 | 01/17 | 19:00 | 15 | 2 | 56 | 30.43 | W | 7 | 0.00 |
| 55 | 01/17 | 18:00 | 15 | 3 | 60 | 30.40 | WNW | 9 | 0.00 |
| 56 | 01/17 | 17:00 | 17 | 3 | 56 | 30.37 | WNW | 16 | 0.00 |
| 57 | 01/17 | 16:00 | 18 | 4 | 56 | 30.35 | SW | 9 | 0.00 |
| 58 | 01/17 | 15:00 | 19 | 6 | 57 | 30.34 | WNW | 12 | 0.00 |
| 59 | 01/17 | 14:00 | 19 | 8 | 62 | 30.33 | WNW | 8 | 0.00 |
| 60 | 01/17 | 13:00 | 21 | 10 | 63 | 30.34 | NW | 12 | 0.00 |
| 61 | 01/17 | 12:00 | 21 | 9 | 60 | 30.35 | WNW | 10 | 0.00 |
| 62 | 01/17 | 11:00 | 22 | 11 | 63 | 30.38 | NW | 8 | 0.00 |
| 63 | 01/17 | 10:00 | 20 | 11 | 68 | 30.39 | WNW | 12 | 0.00 |
| 64 | 01/17 | 09:00 | 20 | 13 | 74 | 30.38 | NNW | 6 | 0.00 |
| 65 | 01/17 | 08:00 | 20 | 13 | 74 | 30.35 | NW | 9 | 0.00 |
| 66 | 01/17 | 07:00 | 21 | 14 | 74 | 30.33 | NW | 7 | 0.00 |
| 67 | 01/17 | 06:00 | 22 | 15 | 76 | 30.30 | NNW | 8 | 0.00 |
| 68 | 01/17 | 05:00 | 22 | 18 | 88 | 30.29 | NW | 11 | 0.00 |
| 69 | 01/17 | 04:00 | 22 | 22 | 100 | 30.26 | NNW | 6 | 0.00 |
| 70 | 01/17 | 03:00 | 23 | 23 | 100 | 30.25 | NNW | 5 | 0.00 |
| 71 | 01/17 | 02:00 | 24 | 23 | 100 | 30.24 | NW | 3 | 0.00 |
| 72 | 01/17 | 01:00 | 24 | 23 | 99 | 30.24 | NW | 4 | 0.00 |
| 73 | 01/17 | 00:00 | 25 | 24 | 98 | 30.25 | WNW | 2 | 0.00 |